Flight Track Log - Related Links

Times and Time Zones

All times are in EDT time to prevent confusion due to time zone crossing. See the AAY894 flight status page for this flight to view local times or setup timezone preferences in your user account.

Time Position Orientation Groundspeed Altitude Reporting Facility
EDT Latitude Longitude Course Direction KTS MPH feet Rate Location/Type
Sun 07:50:01 AM 27.9333 -82.7000 360° North 160 184 700  Level Tampa TRACON
Sun 07:50:25 AM 27.9500 -82.7000 360° North 184 212 1,500 1,643 Climbing Tampa TRACON
Sun 07:51:25 AM 28.0167 -82.6667 24° Northeast 266 306 3,000 1,844 Climbing Tampa TRACON
Sun 07:53:24 AM 28.1542 -82.6164 18° North 273 314 7,000 2,167 Climbing Miami Center
Sun 07:54:25 AM 28.2292 -82.5917 16° North 275 316 9,500 2,164 Climbing Miami Center
Sun 07:55:26 AM 28.3103 -82.5658 16° North 296 341 11,400 1,328 Climbing Miami Center
Sun 07:56:27 AM 28.4067 -82.5306 18° North 344 396 12,200 1,525 Climbing Miami Center
Sun 07:57:28 AM 28.5136 -82.5222 North 381 438 14,500 2,256 Climbing Miami Center
Sun 07:58:32 AM 28.6481 -82.5283 358° North 379 436 16,900 1,984 Climbing Jacksonville Center
Sun 07:59:32 AM 28.7525 -82.5397 355° North 393 452 18,600 1,650 Climbing Jacksonville Center
Sun 08:00:32 AM 28.8736 -82.5489 356° North 416 479 20,200 1,600 Climbing Jacksonville Center
Sun 08:01:32 AM 28.9967 -82.5556 357° North 430 495 21,800 1,500 Climbing Jacksonville Center
Sun 08:02:32 AM 29.1219 -82.5742 353° North 441 507 23,200 1,400 Climbing Jacksonville Center
Sun 08:03:32 AM 29.2514 -82.5783 358° North 447 514 24,600 1,600 Climbing Jacksonville Center
Sun 08:04:32 AM 29.3767 -82.5900 355° North 447 514 26,400 1,650 Climbing Jacksonville Center
Sun 08:05:32 AM 29.5042 -82.5992 356° North 447 514 27,900 1,650 Climbing Jacksonville Center
Sun 08:06:32 AM 29.6253 -82.6131 354° North 447 514 29,700 1,550 Climbing Jacksonville Center
Sun 08:07:32 AM 29.7631 -82.6197 358° North 442 509 31,000 650 Climbing Jacksonville Center
Sun 08:08:32 AM 29.8842 -82.6339 354° North 442 509 31,000  Level Jacksonville Center
Sun 08:09:32 AM 30.0075 -82.6408 357° North 442 509 31,000  Level Jacksonville Center
Sun 08:10:32 AM 30.1328 -82.6547 355° North 447 514 31,000  Level Jacksonville Center
Sun 08:11:32 AM 30.2539 -82.6617 357° North 441 507 31,000  Level Jacksonville Center
Sun 08:12:32 AM 30.3750 -82.6758 354° North 436 502 31,000 200 Level Jacksonville Center
Sun 08:13:32 AM 30.4981 -82.6806 358° North 436 502 31,400 950 Climbing Jacksonville Center
Sun 08:14:32 AM 30.6025 -82.6706 North 434 499 32,900 800 Climbing Jacksonville Center
Sun 08:15:32 AM 30.7214 -82.6508 North 434 499 33,000 50 Climbing Jacksonville Center
Sun 08:16:32 AM 30.8425 -82.6336 North 429 494 33,000  Level Jacksonville Center
Sun 08:17:32 AM 30.9572 -82.6117 North 424 488 33,000  Level Jacksonville Center
Sun 08:18:32 AM 31.0783 -82.5942 North 424 488 33,000  Level Jacksonville Center
Sun 08:19:32 AM 31.1994 -82.5744 North 429 494 33,000  Level Jacksonville Center
Sun 08:20:32 AM 31.3206 -82.5569 North 429 494 33,000  Level Jacksonville Center
Sun 08:21:32 AM 31.4542 -82.5272 11° North 424 488 33,000  Level Jacksonville Center
Sun 08:22:32 AM 31.5708 -82.5122 North 429 494 33,000  Level Jacksonville Center
Sun 08:23:12 AM 31.6411 -82.4997 North 426 490 33,000  Level Atlanta Center
Sun 08:24:12 AM 31.7597 -82.4831 North 426 490 33,000  Level Atlanta Center
Sun 08:25:12 AM 31.8806 -82.4614 North 426 490 33,000  Level Atlanta Center
Sun 08:26:12 AM 31.9992 -82.4419 North 426 490 33,000  Level Atlanta Center
Sun 08:27:12 AM 32.1181 -82.4203 North 426 490 33,000  Level Atlanta Center
Sun 08:28:12 AM 32.2492 -82.3933 10° North 431 496 33,000  Level Atlanta Center
Sun 08:29:12 AM 32.3700 -82.3789 North 426 490 33,000  Level Atlanta Center
Sun 08:30:12 AM 32.4867 -82.3594 North 426 490 33,000  Level Atlanta Center
Sun 08:31:12 AM 32.6072 -82.3400 North 426 490 33,000  Level Atlanta Center
Sun 08:32:12 AM 32.7281 -82.3103 12° North 434 499 33,000  Level Atlanta Center
Sun 08:33:12 AM 32.8486 -82.2858 10° North 434 499 33,000  Level Atlanta Center
Sun 08:34:12 AM 32.9692 -82.2536 13° North 434 499 33,000  Level Atlanta Center
Sun 08:35:12 AM 33.0881 -82.2314 North 434 499 33,000  Level Atlanta Center
Sun 08:36:12 AM 33.2106 -82.1964 13° North 434 499 33,000  Level Atlanta Center
Sun 08:37:12 AM 33.3314 -82.1742 North 434 499 33,000  Level Atlanta Center
Sun 08:38:12 AM 33.4394 -82.1394 15° North 439 505 33,000  Level Atlanta Center
Sun 08:39:12 AM 33.5622 -82.1167 North 439 505 33,000  Level Atlanta Center
Sun 08:40:12 AM 33.6825 -82.0817 14° North 444 511 33,000  Level Atlanta Center
Sun 08:41:12 AM 33.8053 -82.0564 10° North 449 517 33,000  Level Atlanta Center
Sun 08:42:12 AM 33.9281 -82.0233 13° North 449 517 33,000  Level Atlanta Center
Sun 08:43:12 AM 34.0508 -82.0006 North 449 517 33,000  Level Atlanta Center
Sun 08:44:12 AM 34.1714 -81.9700 12° North 449 517 33,000  Level Atlanta Center
Sun 08:45:12 AM 34.2939 -81.9442 10° North 449 517 33,000  Level Atlanta Center
Sun 08:46:12 AM 34.4144 -81.9111 13° North 444 511 33,000  Level Atlanta Center
Sun 08:47:12 AM 34.5494 -81.8800 11° North 450 518 33,000  Level Atlanta Center
Sun 08:48:12 AM 34.6703 -81.8567 North 445 512 33,000  Level Atlanta Center
Sun 08:49:12 AM 34.7928 -81.8231 13° North 445 512 33,000  Level Atlanta Center
Sun 08:50:12 AM 34.9131 -81.7919 12° North 445 512 33,000  Level Atlanta Center
Sun 08:51:12 AM 35.0378 -81.7658 10° North 445 512 33,000  Level Atlanta Center
Sun 08:52:12 AM 35.1625 -81.7344 12° North 445 512 33,000  Level Atlanta Center
Sun 08:53:12 AM 35.2850 -81.7006 13° North 445 512 33,000  Level Atlanta Center
Sun 08:54:12 AM 35.4075 -81.6742 10° North 445 512 33,000  Level Atlanta Center
Sun 08:55:12 AM 35.5278 -81.6400 13° North 445 512 33,000  Level Atlanta Center
Sun 08:56:12 AM 35.6525 -81.6108 11° North 450 518 33,000  Level Atlanta Center
Sun 08:57:12 AM 35.7519 -81.5822 13° North 450 518 33,000  Level Atlanta Center
Sun 08:58:12 AM 35.8872 -81.5550 North 450 518 33,000  Level Atlanta Center
Sun 08:59:12 AM 36.0072 -81.5156 15° North 450 518 33,000 50 Level Atlanta Center
Sun 09:00:12 AM 36.1278 -81.4911 North 445 512 33,100  Climbing Atlanta Center
Sun 09:01:12 AM 36.2481 -81.4539 14° North 445 512 33,000 -50 Descending Atlanta Center
Sun 09:02:12 AM 36.3683 -81.4294 North 445 512 33,000  Level Atlanta Center
Sun 09:03:12 AM 36.4906 -81.3892 15° North 445 512 33,000  Level Atlanta Center
Sun 09:04:12 AM 36.6069 -81.3647 10° North 445 512 33,000  Level Atlanta Center
Sun 09:06:01 AM 36.8358 -81.3047 12° North 442 509 33,000  Level Indianapolis Center
Sun 09:07:02 AM 36.9572 -81.2722 12° North 442 509 33,000  Level Indianapolis Center
Sun 09:08:04 AM 37.0739 -81.2433 11° North 442 509 33,000  Level Indianapolis Center
Sun 09:09:05 AM 37.1925 -81.2119 12° North 442 509 33,000  Level Indianapolis Center
Sun 09:10:07 AM 37.3156 -81.1797 12° North 441 507 33,000  Level Indianapolis Center
Sun 09:11:08 AM 37.4364 -81.1478 12° North 441 507 33,000  Level Indianapolis Center
Sun 09:12:10 AM 37.5567 -81.1158 12° North 441 507 33,000  Level Indianapolis Center
Sun 09:13:11 AM 37.6769 -81.0850 11° North 440 506 33,000  Level Indianapolis Center
Sun 09:14:13 AM 37.7956 -81.0539 12° North 439 505 33,000  Level Indianapolis Center
Sun 09:15:14 AM 37.9194 -81.0186 13° North 438 504 33,000  Level Indianapolis Center
Sun 09:16:16 AM 38.0611 -80.9850 11° North 437 503 33,000  Level Indianapolis Center
Sun 09:17:17 AM 38.1775 -80.9489 14° North 431 496 33,000  Level Indianapolis Center
Sun 09:18:19 AM 38.2958 -80.9200 11° North 431 496 33,000  Level Indianapolis Center
Sun 09:19:20 AM 38.4119 -80.8858 13° North 431 496 33,000  Level Indianapolis Center
Sun 09:20:22 AM 38.5297 -80.8564 11° North 432 497 33,000  Level Indianapolis Center
Sun 09:21:24 AM 38.6467 -80.8219 13° North 432 497 33,000  Level Indianapolis Center
Sun 09:22:25 AM 38.7625 -80.7919 11° North 432 497 33,000  Level Indianapolis Center
Sun 09:23:27 AM 38.9039 -80.7519 12° North 432 497 33,000  Level Indianapolis Center
Sun 09:24:28 AM 39.0186 -80.7219 11° North 431 496 33,000  Level Indianapolis Center
Sun 09:25:30 AM 39.1358 -80.6903 12° North 430 495 33,000  Level Indianapolis Center
Sun 09:26:32 AM 39.2522 -80.6456 17° North 434 499 33,000  Level Indianapolis Center
Sun 09:27:33 AM 39.3683 -80.5969 18° North 437 503 33,000  Level Indianapolis Center
Sun 09:28:35 AM 39.4817 -80.5539 16° North 429 494 33,000  Level Indianapolis Center
Sun 09:29:18 AM 39.5631 -80.5158 20° North 429 494 33,000 -57 Level Cleveland Center
Sun 09:30:20 AM 39.6797 -80.4747 15° North 431 496 32,900 -484 Descending Cleveland Center
Sun 09:31:22 AM 39.7933 -80.4203 20° North 433 498 32,000 -927 Descending Cleveland Center
Sun 09:32:23 AM 39.9356 -80.3653 17° North 441 507 31,000 -488 Descending Cleveland Center
Sun 09:33:25 AM 40.0511 -80.3094 20° North 442 509 31,000  Level Cleveland Center
Sun 09:34:27 AM 40.1717 -80.2633 16° North 447 514 31,000  Level Cleveland Center
Sun 09:35:28 AM 40.2883 -80.2081 20° North 450 518 31,000  Level Cleveland Center
Sun 09:36:30 AM 40.4047 -80.1647 16° North 450 518 31,000  Level Cleveland Center
Sun 09:37:32 AM 40.5472 -80.0964 20° North 452 520 31,000  Level Cleveland Center
Sun 09:38:34 AM 40.6669 -80.0514 16° North 450 518 31,000 -49 Level Cleveland Center
Sun 09:39:35 AM 40.7769 -79.9961 21° North 447 514 30,900 -585 Descending Cleveland Center
Sun 09:40:37 AM 40.8975 -79.9511 16° North 448 516 29,800 -1,065 Descending Cleveland Center
Sun 09:41:39 AM 41.0139 -79.8922 21° North 449 517 28,700 -1,171 Descending Cleveland Center
Sun 09:42:40 AM 41.1542 -79.8372 16° North 449 517 27,400 -1,220 Descending Cleveland Center
Sun 09:43:42 AM 41.2753 -79.7769 21° North 439 505 26,200 -1,065 Descending Cleveland Center
Sun 09:44:44 AM 41.3892 -79.7339 16° North 429 494 25,200 -1,073 Descending Cleveland Center
Sun 09:45:45 AM 41.4986 -79.6781 21° North 424 488 24,000 -585 Descending Cleveland Center
Sun 09:46:47 AM 41.6075 -79.6361 16° North 414 476 24,000  Level Cleveland Center
Sun 09:47:49 AM 41.7150 -79.5828 20° North 413 475 24,000  Level Cleveland Center
Sun 09:48:50 AM 41.8247 -79.5389 17° North 413 475 24,000  Level Cleveland Center
Sun 09:49:52 AM 41.9322 -79.4850 20° North 415 478 24,000 -387 Level Cleveland Center
Sun 09:50:54 AM 42.0653 -79.4325 16° North 416 479 23,200 -1,317 Descending Cleveland Center
Sun 09:51:55 AM 42.1733 -79.3744 22° Northeast 416 479 21,300 -1,854 Descending Cleveland Center
Sun 09:52:57 AM 42.2822 -79.3322 16° North 413 475 19,400 -2,049 Descending Cleveland Center
Sun 09:53:58 AM 42.3881 -79.2769 21° North 411 473 17,100 -2,585 Descending Cleveland Center
Sun 09:55:00 AM 42.5142 -79.2275 16° North 414 476 14,100 -2,468 Descending Cleveland Center
Sun 09:56:02 AM 42.6211 -79.1717 21° North 414 476 12,000 -1,610 Descending Cleveland Center
Sun 09:57:03 AM 42.7147 -79.1331 17° North 353 406 10,800 -1,610 Descending Cleveland Center
Sun 09:58:05 AM 42.7989 -79.1000 16° North 313 360 8,700 -1,839 Descending Cleveland Center
Sun 09:59:07 AM 42.8694 -79.0397 32° Northeast 294 338 7,000 -1,610 Descending Cleveland Center
Sun 10:00:08 AM 42.9200 -78.9525 52° Northeast 286 329 5,400 -976 Descending Cleveland Center
Sun 10:01:10 AM 42.9728 -78.8711 48° Northeast 279 321 5,000 -387 Descending Cleveland Center
Sun 10:02:12 AM 43.0144 -78.8083 48° Northeast 235 270 4,600 -871 Descending Cleveland Center
Sun 10:03:14 AM 43.0553 -78.7450 49° Northeast 220 253 3,200 -878 Descending Cleveland Center
Sun 10:04:15 AM 43.1019 -78.7675 341° North 196 226 2,800 -732 Descending Cleveland Center
Sun 10:05:17 AM 43.1094 -78.8383 278° West 185 213 1,700 -677 Descending Cleveland Center
Sun 10:06:19 AM 43.1081 -78.9017 268° West 184 212 1,400 -290 Descending Cleveland Center

Login

Don't have an account? Register now (free) for customized features, flight alerts, and more!